Time;durP1;ratioP1;P1;durP2;ratioP2;P2;SDS_P1;SDS_P2;PMS_P1;PMS_P2;Temp;Humidity;BMP_temperature;BMP_pressure;BME280_temperature;BME280_humidity;BME280_pressure;Samples;Min_cycle;Max_cycle;Signal;HPM_P1;HPM_P2
2022/02/25 00:00:35;;;;;;;27.48;19.90;;;;;;;5.54;71.52;101115.06;1757703;79;21033;-76
2022/02/25 00:03:06;;;;;;;26.40;19.37;;;;;;;5.53;71.47;101105.50;1766334;79;21003;-75
2022/02/25 00:05:37;;;;;;;30.12;19.05;;;;;;;5.52;71.39;101103.05;1721416;81;21546;-75
2022/02/25 00:08:02;;;;;;;28.38;20.37;;;;;;;5.49;71.30;101109.56;1758046;79;21478;-75
2022/02/25 00:10:28;;;;;;;26.33;20.20;;;;;;;5.45;71.34;101107.05;1752409;79;21508;-75
2022/02/25 00:12:57;;;;;;;27.77;19.48;;;;;;;5.45;71.32;101103.58;1782235;78;21430;-76
2022/02/25 00:15:25;;;;;;;28.50;20.65;;;;;;;5.45;71.34;101103.06;1765757;78;21569;-75
2022/02/25 00:17:54;;;;;;;28.55;20.37;;;;;;;5.46;71.25;101094.60;1784524;78;21153;-76
2022/02/25 00:20:21;;;;;;;30.60;21.35;;;;;;;5.46;71.09;101095.41;1783993;78;21109;-75
2022/02/25 00:22:47;;;;;;;32.85;22.32;;;;;;;5.45;70.95;101094.31;1789545;78;21062;-76
2022/02/25 00:25:16;;;;;;;29.55;21.25;;;;;;;5.45;70.86;101092.47;1781788;78;21107;-75
2022/02/25 00:27:44;;;;;;;31.57;19.55;;;;;;;5.43;70.71;101085.75;1787601;78;21478;-75
2022/02/25 00:30:13;;;;;;;29.35;21.57;;;;;;;5.38;70.61;101080.58;1787025;78;20955;-74
2022/02/25 00:32:42;;;;;;;30.23;21.45;;;;;;;5.32;70.51;101079.27;1785768;79;21037;-77
2022/02/25 00:35:12;;;;;;;27.87;20.57;;;;;;;5.27;70.57;101085.20;1788804;78;21081;-76
2022/02/25 00:37:40;;;;;;;30.97;21.57;;;;;;;5.25;70.58;101076.65;1790980;78;21395;-75
2022/02/25 00:40:09;;;;;;;30.68;21.65;;;;;;;5.24;70.56;101078.19;1798351;78;21036;-76
2022/02/25 00:42:38;;;;;;;32.90;22.70;;;;;;;5.24;70.49;101075.03;1782167;78;21061;-76
2022/02/25 00:45:08;;;;;;;30.30;21.75;;;;;;;5.22;70.36;101073.09;1772189;79;21061;-74
2022/02/25 00:47:37;;;;;;;29.40;21.15;;;;;;;5.18;70.24;101078.51;1771257;79;21089;-76
2022/02/25 00:50:08;;;;;;;31.02;21.45;;;;;;;5.14;70.23;101066.71;1733842;81;21944;-77
2022/02/25 00:52:38;;;;;;;29.90;21.68;;;;;;;5.08;70.20;101066.22;1799319;78;21310;-75
2022/02/25 00:55:08;;;;;;;30.23;21.12;;;;;;;5.06;70.20;101062.44;1801264;78;20963;-76
2022/02/25 00:57:35;;;;;;;29.57;20.80;;;;;;;5.05;70.19;101062.66;1809025;78;21058;-76
2022/02/25 01:00:06;;;;;;;28.65;20.62;;;;;;;5.04;70.17;101055.75;1808882;78;21560;-76
2022/02/25 01:02:33;;;;;;;26.97;20.10;;;;;;;5.04;70.09;101057.87;1812826;78;22416;-76
2022/02/25 01:05:00;;;;;;;29.75;20.70;;;;;;;5.04;70.00;101051.77;1810128;78;21553;-77
2022/02/25 01:07:42;;;;;;;30.85;20.72;;;;;;;5.00;69.92;101046.57;1753413;80;21078;-69
2022/02/25 01:10:10;;;;;;;29.42;20.55;;;;;;;4.99;69.93;101044.44;1761900;80;21059;-69
2022/02/25 01:12:37;;;;;;;29.15;20.70;;;;;;;4.98;69.86;101047.31;1783928;78;21054;-70
2022/02/25 01:15:06;;;;;;;30.10;20.75;;;;;;;4.94;69.83;101037.13;1780897;79;21520;-70
2022/02/25 01:17:33;;;;;;;29.52;20.05;;;;;;;4.93;69.86;101038.64;1756784;80;21024;-68
2022/02/25 01:20:03;;;;;;;30.00;21.15;;;;;;;4.92;69.85;101041.81;1766524;80;20960;-69
2022/02/25 01:22:33;;;;;;;26.35;21.00;;;;;;;4.94;69.83;101042.42;1766279;79;21125;-69
2022/02/25 01:25:00;;;;;;;25.90;19.52;;;;;;;4.97;69.78;101041.69;1777273;79;21039;-68
2022/02/25 01:27:27;;;;;;;29.15;20.12;;;;;;;4.98;69.77;101045.47;1783314;79;21111;-69
2022/02/25 01:29:53;;;;;;;28.32;19.65;;;;;;;5.00;69.79;101043.92;1758869;81;20946;-69
2022/02/25 01:32:20;;;;;;;28.47;20.12;;;;;;;5.01;69.74;101038.95;1758083;79;21567;-69
2022/02/25 01:34:47;;;;;;;28.62;20.25;;;;;;;5.00;69.72;101045.25;1766566;80;21113;-68
2022/02/25 01:37:14;;;;;;;26.37;18.92;;;;;;;5.00;69.78;101038.14;1755884;80;21038;-70
2022/02/25 01:39:41;;;;;;;25.65;19.45;;;;;;;5.00;69.73;101027.55;1713364;82;21508;-70
2022/02/25 01:42:07;;;;;;;29.90;20.72;;;;;;;5.00;69.71;101028.03;1703284;82;21041;-70
2022/02/25 01:44:41;;;;;;;28.73;19.50;;;;;;;5.00;69.72;101023.58;1716028;82;21549;-70
2022/02/25 01:47:11;;;;;;;31.10;20.43;;;;;;;5.02;69.75;101022.03;1699890;81;21542;-69
2022/02/25 01:49:40;;;;;;;25.75;19.05;;;;;;;5.05;69.80;101013.67;1746450;81;20998;-69
2022/02/25 01:52:17;;;;;;;25.60;18.80;;;;;;;5.04;69.69;101015.52;1762843;79;21119;-70
2022/02/25 01:54:46;;;;;;;25.15;19.67;;;;;;;5.02;69.70;101012.77;1745503;79;21027;-70
2022/02/25 01:57:15;;;;;;;27.07;19.95;;;;;;;4.93;69.70;101010.34;1765696;79;21125;-69
2022/02/25 01:59:42;;;;;;;29.90;20.85;;;;;;;4.91;69.77;101008.42;1763079;79;21294;-68
2022/02/25 02:02:09;;;;;;;29.40;20.92;;;;;;;4.87;69.79;101012.52;1760330;79;21533;-69
2022/02/25 02:04:36;;;;;;;31.95;21.48;;;;;;;4.81;69.88;101009.89;1748634;80;21163;-69
2022/02/25 02:07:05;;;;;;;29.95;21.40;;;;;;;4.83;70.01;101005.19;1721457;81;21050;-69
2022/02/25 02:09:33;;;;;;;28.35;21.12;;;;;;;4.86;70.05;101005.58;1743414;80;21101;-69
2022/02/25 02:12:01;;;;;;;30.50;21.33;;;;;;;4.90;70.07;101004.65;1707866;82;21471;-69
2022/02/25 02:14:28;;;;;;;29.95;21.10;;;;;;;4.90;70.03;100997.55;1748321;80;21053;-70
2022/02/25 02:16:57;;;;;;;30.77;19.90;;;;;;;4.89;70.08;101002.52;1743972;81;21993;-69
2022/02/25 02:19:24;;;;;;;28.40;20.55;;;;;;;4.89;70.05;100999.06;1745563;80;20931;-69
2022/02/25 02:21:53;;;;;;;29.05;20.85;;;;;;;4.89;69.99;101001.19;1745429;80;21521;-71
2022/02/25 02:24:24;;;;;;;29.10;20.80;;;;;;;4.87;69.89;100998.45;1752846;80;21043;-69
2022/02/25 02:26:52;;;;;;;26.50;19.07;;;;;;;4.86;69.83;101000.80;1771116;79;21093;-70
2022/02/25 02:29:19;;;;;;;30.68;20.00;;;;;;;4.83;69.76;100996.73;1735118;80;21152;-68
2022/02/25 02:31:45;;;;;;;28.12;19.32;;;;;;;4.82;69.68;101004.38;1746135;80;21001;-69
2022/02/25 02:34:16;;;;;;;31.90;20.30;;;;;;;4.81;69.64;100994.02;1744176;80;21109;-69
2022/02/25 02:36:43;;;;;;;27.17;19.77;;;;;;;4.83;69.58;100996.73;1747987;80;21117;-70
2022/02/25 02:39:11;;;;;;;28.17;19.85;;;;;;;4.85;69.45;100996.02;1742527;80;21067;-70
2022/02/25 02:41:38;;;;;;;30.62;20.43;;;;;;;4.83;69.28;100998.05;1754297;80;22191;-70
2022/02/25 02:44:06;;;;;;;26.85;20.15;;;;;;;4.80;69.24;100988.39;1749067;80;20955;-69
2022/02/25 02:46:34;;;;;;;24.92;18.85;;;;;;;4.79;69.20;100991.55;1750414;80;21046;-70
2022/02/25 02:49:01;;;;;;;28.50;20.70;;;;;;;4.84;69.00;100986.47;1755460;80;21090;-70
2022/02/25 02:51:29;;;;;;;25.30;18.35;;;;;;;4.83;68.94;100991.44;1748031;80;21049;-70
2022/02/25 02:53:57;;;;;;;27.95;19.70;;;;;;;4.82;68.93;100992.98;1750745;80;22219;-70
2022/02/25 02:56:24;;;;;;;26.07;18.20;;;;;;;4.83;68.85;100995.92;1766198;80;20978;-70
2022/02/25 02:58:55;;;;;;;27.87;20.17;;;;;;;4.82;68.78;100997.76;1750743;80;21181;-70
2022/02/25 03:01:20;;;;;;;25.65;18.40;;;;;;;4.77;68.71;100992.78;1746210;80;21047;-69
2022/02/25 03:03:46;;;;;;;27.45;19.40;;;;;;;4.67;68.75;100995.37;1751104;80;21038;-70
2022/02/25 03:06:13;;;;;;;24.95;17.82;;;;;;;4.63;68.84;100987.52;1741729;80;21074;-69
2022/02/25 03:08:40;;;;;;;26.40;18.12;;;;;;;4.63;68.79;100988.84;1744414;80;21050;-70
2022/02/25 03:11:07;;;;;;;24.35;17.00;;;;;;;4.61;68.80;100987.45;1750840;81;21149;-69
2022/02/25 03:13:34;;;;;;;23.42;17.25;;;;;;;4.59;68.78;100983.66;1751840;80;21015;-70
2022/02/25 03:16:00;;;;;;;28.30;18.07;;;;;;;4.62;68.73;100983.25;1748679;80;21054;-70
2022/02/25 03:18:27;;;;;;;26.80;18.02;;;;;;;4.61;68.58;100979.50;1752551;80;21543;-69
2022/02/25 03:20:54;;;;;;;27.10;17.57;;;;;;;4.61;68.48;100978.19;1745347;80;21879;-70
2022/02/25 03:23:21;;;;;;;24.18;16.97;;;;;;;4.58;68.33;100971.98;1749431;80;21011;-70
2022/02/25 03:25:48;;;;;;;21.07;14.83;;;;;;;4.59;68.23;100968.30;1745638;80;21050;-69
2022/02/25 03:28:15;;;;;;;22.77;16.32;;;;;;;4.56;68.07;100968.72;1747125;80;21085;-69
2022/02/25 03:30:43;;;;;;;24.75;16.35;;;;;;;4.52;68.06;100970.97;1744735;80;21100;-70
2022/02/25 03:33:10;;;;;;;24.15;16.27;;;;;;;4.53;68.01;100969.94;1749975;80;21062;-70
2022/02/25 03:35:38;;;;;;;20.45;14.75;;;;;;;4.57;67.89;100966.37;1744112;80;22334;-69
2022/02/25 03:38:04;;;;;;;25.45;16.35;;;;;;;4.61;67.73;100967.60;1742504;81;21426;-69
2022/02/25 03:40:32;;;;;;;23.40;16.95;;;;;;;4.61;67.58;100962.31;1743672;80;21066;-70
2022/02/25 03:42:59;;;;;;;25.12;17.62;;;;;;;4.62;67.45;100966.05;1755709;80;21072;-70
2022/02/25 03:45:26;;;;;;;25.05;17.35;;;;;;;4.65;67.33;100955.58;1757689;80;21569;-68
2022/02/25 03:47:53;;;;;;;28.00;17.90;;;;;;;4.68;67.19;100961.78;1748195;81;21058;-69
2022/02/25 03:50:22;;;;;;;26.60;16.80;;;;;;;4.69;67.09;100959.42;1750056;80;21066;-69
2022/02/25 03:52:48;;;;;;;23.57;16.00;;;;;;;4.68;66.96;100955.16;1747892;80;21612;-69
2022/02/25 03:55:15;;;;;;;24.18;16.77;;;;;;;4.67;66.86;100958.33;1747382;80;21141;-70
2022/02/25 03:57:42;;;;;;;23.70;16.50;;;;;;;4.68;66.79;100955.97;1745749;80;21169;-69
2022/02/25 04:00:16;;;;;;;22.87;15.75;;;;;;;4.70;66.63;100952.63;1753111;81;21625;-69
2022/02/25 04:02:39;;;;;;;21.82;15.60;;;;;;;4.68;66.56;100956.48;1745779;81;21113;-69
2022/02/25 04:05:10;;;;;;;22.55;15.48;;;;;;;4.69;66.46;100953.62;1749525;80;21086;-70
2022/02/25 04:07:39;;;;;;;24.47;15.25;;;;;;;4.70;66.36;100955.27;1760245;80;21182;-70
2022/02/25 04:10:07;;;;;;;21.95;13.40;;;;;;;4.72;66.22;100954.23;1760321;81;20971;-70
2022/02/25 04:12:35;;;;;;;20.50;14.63;;;;;;;4.72;66.13;100950.27;1747439;80;21043;-70
2022/02/25 04:15:04;;;;;;;22.10;15.78;;;;;;;4.70;65.99;100954.42;1744650;80;21669;-70
2022/02/25 04:17:35;;;;;;;22.17;14.98;;;;;;;4.67;65.93;100962.29;1740563;80;21090;-70
2022/02/25 04:20:02;;;;;;;23.15;15.78;;;;;;;4.67;65.96;100950.88;1740885;81;21514;-69
2022/02/25 04:22:29;;;;;;;22.48;14.95;;;;;;;4.66;65.84;100952.70;1751350;80;21765;-68
2022/02/25 04:24:56;;;;;;;27.85;15.85;;;;;;;4.67;65.86;100954.36;1753104;80;21063;-70
2022/02/25 04:27:22;;;;;;;19.50;13.43;;;;;;;4.68;65.80;100953.84;1760595;80;21074;-68
2022/02/25 04:29:51;;;;;;;20.35;14.03;;;;;;;4.67;65.77;100950.88;1757271;80;21557;-70
2022/02/25 04:32:18;;;;;;;22.58;14.85;;;;;;;4.67;65.71;100942.93;1753072;81;21077;-70
2022/02/25 04:34:45;;;;;;;18.00;13.58;;;;;;;4.63;65.63;100944.38;1754877;80;20992;-70
2022/02/25 04:37:12;;;;;;;23.98;16.02;;;;;;;4.60;65.62;100941.63;1741336;80;21105;-70
2022/02/25 04:39:39;;;;;;;22.20;15.25;;;;;;;4.51;65.65;100940.73;1739875;80;21478;-70
2022/02/25 04:42:06;;;;;;;21.68;14.60;;;;;;;4.44;65.81;100946.04;1741702;80;21121;-70
2022/02/25 04:44:33;;;;;;;22.42;14.73;;;;;;;4.43;65.88;100944.42;1748392;80;21083;-70
2022/02/25 04:47:01;;;;;;;20.62;14.10;;;;;;;4.42;65.91;100944.94;1747404;80;21097;-69
2022/02/25 04:49:28;;;;;;;19.67;13.30;;;;;;;4.37;65.93;100943.92;1744622;80;20995;-69
2022/02/25 04:51:56;;;;;;;18.67;12.98;;;;;;;4.29;66.02;100944.97;1738669;81;21043;-69
2022/02/25 04:54:23;;;;;;;21.02;13.48;;;;;;;4.22;66.15;100941.52;1747279;80;21075;-70
2022/02/25 04:56:50;;;;;;;18.75;13.70;;;;;;;4.17;66.22;100943.95;1760627;80;21548;-70
2022/02/25 04:59:18;;;;;;;20.37;13.78;;;;;;;4.09;66.34;100940.22;1743172;81;21636;-70
2022/02/25 05:01:46;;;;;;;18.85;12.80;;;;;;;4.06;66.51;100934.02;1746339;80;21184;-68
2022/02/25 05:04:13;;;;;;;17.23;12.13;;;;;;;4.05;66.65;100933.69;1738564;81;21019;-69
2022/02/25 05:06:40;;;;;;;21.73;12.55;;;;;;;4.04;66.77;100926.27;1741112;80;21047;-69
2022/02/25 05:09:07;;;;;;;16.60;11.40;;;;;;;3.99;66.91;100926.89;1748755;81;21533;-71
2022/02/25 05:11:34;;;;;;;17.05;11.83;;;;;;;3.95;67.03;100920.40;1747095;80;21101;-70
2022/02/25 05:14:02;;;;;;;17.57;12.10;;;;;;;3.91;67.11;100917.03;1744644;81;21116;-70
2022/02/25 05:22:02;;;;;;;17.57;11.33;;;;;;;3.89;67.13;100915.92;1774652;80;21148;-69
2022/02/25 05:24:30;;;;;;;14.80;10.68;;;;;;;3.88;67.19;100922.72;1777547;80;21160;-70
2022/02/25 05:26:57;;;;;;;15.72;10.93;;;;;;;3.90;67.20;100922.83;1769171;80;21552;-69
2022/02/25 05:29:24;;;;;;;16.60;11.22;;;;;;;3.92;67.18;100920.00;1771410;80;21539;-69
2022/02/25 05:31:51;;;;;;;17.20;11.30;;;;;;;3.94;67.04;100913.47;1774544;80;21129;-69
2022/02/25 05:34:18;;;;;;;15.13;10.80;;;;;;;3.96;66.98;100918.05;1720089;83;21010;-70
2022/02/25 05:36:45;;;;;;;15.58;9.45;;;;;;;3.99;66.91;100912.88;1732318;81;21974;-70
2022/02/25 05:39:12;;;;;;;15.13;10.50;;;;;;;4.00;66.81;100908.69;1722443;81;20996;-69
2022/02/25 05:41:38;;;;;;;15.13;10.05;;;;;;;3.98;66.84;100910.74;1718860;81;21007;-70
2022/02/25 05:44:06;;;;;;;15.30;10.20;;;;;;;4.02;66.82;100908.50;1717505;81;21059;-70
2022/02/25 05:46:34;;;;;;;15.18;10.10;;;;;;;4.07;66.73;100906.04;1691078;82;21102;-70
2022/02/25 05:49:00;;;;;;;17.52;10.75;;;;;;;4.12;66.59;100902.28;1725398;82;21145;-70
2022/02/25 05:51:34;;;;;;;15.85;10.48;;;;;;;4.17;66.56;100909.07;1726964;82;21553;-69
2022/02/25 05:54:14;;;;;;;14.98;9.68;;;;;;;4.24;66.43;100901.13;1721871;82;21074;-70
2022/02/25 05:56:37;;;;;;;15.13;10.30;;;;;;;4.28;66.18;100898.39;1721516;82;21074;-69
2022/02/25 05:59:05;;;;;;;15.53;9.68;;;;;;;4.28;66.09;100904.17;1726381;82;21095;-71
2022/02/25 06:01:32;;;;;;;14.28;10.13;;;;;;;4.27;66.00;100906.00;1724794;82;21182;-70
2022/02/25 06:03:59;;;;;;;16.90;10.88;;;;;;;4.32;65.89;100904.08;1719108;82;21000;-70
2022/02/25 06:06:30;;;;;;;14.87;10.05;;;;;;;4.40;65.78;100909.94;1729086;82;21070;-70
2022/02/25 06:09:02;;;;;;;15.93;10.58;;;;;;;4.49;65.60;100915.02;1725183;82;21808;-69
2022/02/25 06:11:31;;;;;;;16.62;10.63;;;;;;;4.51;65.29;100912.96;1721359;82;20951;-70
2022/02/25 06:13:58;;;;;;;14.63;10.58;;;;;;;4.51;65.20;100912.48;1716471;82;22474;-70
2022/02/25 06:16:26;;;;;;;15.48;10.93;;;;;;;4.58;65.15;100909.81;1697867;82;21478;-71
2022/02/25 06:18:56;;;;;;;13.95;10.40;;;;;;;4.64;64.95;100907.63;1712592;82;21070;-71
2022/02/25 06:21:26;;;;;;;15.55;10.43;;;;;;;4.68;64.84;100908.34;1761881;80;21075;-70
2022/02/25 06:23:54;;;;;;;14.47;10.45;;;;;;;4.75;64.67;100902.22;1758480;80;21131;-70
2022/02/25 06:26:23;;;;;;;15.53;10.63;;;;;;;4.81;64.54;100906.67;1764342;80;21526;-70
2022/02/25 06:28:50;;;;;;;15.60;10.60;;;;;;;4.85;64.36;100902.58;1767303;80;21040;-70
2022/02/25 06:31:17;;;;;;;14.23;9.83;;;;;;;4.90;64.16;100907.55;1764154;80;21723;-69
2022/02/25 06:33:46;;;;;;;13.28;10.18;;;;;;;4.93;63.96;100908.94;1753467;80;21077;-71
2022/02/25 06:36:14;;;;;;;18.37;10.55;;;;;;;4.94;63.88;100911.39;1767158;80;21153;-70
2022/02/25 06:38:41;;;;;;;13.48;10.00;;;;;;;4.96;63.73;100906.39;1762436;80;21131;-70
2022/02/25 06:41:08;;;;;;;17.48;10.00;;;;;;;5.00;63.60;100910.23;1756808;80;21024;-70
2022/02/25 06:43:35;;;;;;;14.07;9.73;;;;;;;5.07;63.47;100910.52;1757871;80;21514;-70
2022/02/25 06:46:02;;;;;;;12.73;9.00;;;;;;;5.13;63.25;100905.70;1774555;80;21008;-70
2022/02/25 06:48:29;;;;;;;14.70;9.78;;;;;;;5.21;63.08;100906.47;1759038;80;20995;-70
2022/02/25 06:50:56;;;;;;;12.82;9.10;;;;;;;5.24;62.92;100904.21;1768288;80;22406;-71
2022/02/25 06:53:24;;;;;;;13.70;9.65;;;;;;;5.28;62.80;100904.08;1761854;80;21051;-69
2022/02/25 06:55:50;;;;;;;14.05;9.95;;;;;;;5.31;62.64;100902.33;1768870;80;21719;-69
2022/02/25 06:58:17;;;;;;;14.68;10.15;;;;;;;5.33;62.39;100900.78;1761754;80;21051;-69
2022/02/25 07:00:46;;;;;;;14.15;10.13;;;;;;;5.39;62.44;100896.76;1756290;80;21055;-70
2022/02/25 07:03:13;;;;;;;12.98;9.93;;;;;;;5.48;62.37;100897.84;1762825;80;21862;-69
2022/02/25 07:05:40;;;;;;;12.10;9.13;;;;;;;5.58;62.30;100898.17;1759592;80;21090;-69
2022/02/25 07:08:08;;;;;;;14.53;10.25;;;;;;;5.67;62.12;100896.08;1760946;80;21006;-70
2022/02/25 07:10:37;;;;;;;14.58;9.83;;;;;;;5.72;62.07;100888.27;1763880;80;21047;-70
2022/02/25 07:13:07;;;;;;;14.80;9.90;;;;;;;5.81;62.01;100885.14;1758296;80;21095;-70
2022/02/25 07:15:37;;;;;;;12.60;8.65;;;;;;;5.90;61.65;100880.90;1757301;80;21179;-69
2022/02/25 07:18:04;;;;;;;14.38;9.83;;;;;;;6.00;61.47;100884.70;1769761;80;21068;-70
2022/02/25 07:20:31;;;;;;;12.98;8.85;;;;;;;6.04;61.16;100887.20;1763630;80;21131;-70
2022/02/25 07:22:58;;;;;;;15.18;9.88;;;;;;;6.16;60.99;100883.33;1765561;80;21692;-70
2022/02/25 07:25:24;;;;;;;12.07;8.25;;;;;;;6.23;60.75;100878.77;1759701;80;21055;-70
2022/02/25 07:27:51;;;;;;;12.25;8.60;;;;;;;6.33;60.50;100879.58;1767477;80;21105;-69
2022/02/25 07:30:18;;;;;;;13.10;9.30;;;;;;;6.35;60.22;100882.83;1764002;80;21079;-70
2022/02/25 07:32:45;;;;;;;13.22;9.00;;;;;;;6.40;60.05;100883.48;1758587;80;21189;-69
2022/02/25 07:35:12;;;;;;;13.55;9.13;;;;;;;6.50;59.82;100878.47;1760797;80;21067;-70
2022/02/25 07:37:41;;;;;;;13.60;9.53;;;;;;;6.60;59.58;100873.45;1770200;80;20982;-71
2022/02/25 07:40:12;;;;;;;14.40;8.85;;;;;;;6.72;59.12;100872.20;1761326;80;22006;-71
2022/02/25 07:42:40;;;;;;;13.00;9.23;;;;;;;6.83;58.81;100867.44;1764794;80;21037;-70
2022/02/25 07:45:08;;;;;;;13.25;10.03;;;;;;;6.93;58.44;100871.70;1770783;80;21097;-70
2022/02/25 07:47:35;;;;;;;14.03;9.53;;;;;;;7.02;58.11;100865.56;1762308;80;21052;-69
2022/02/25 07:50:05;;;;;;;11.97;9.15;;;;;;;7.10;57.72;100868.41;1766234;80;21068;-69
2022/02/25 07:52:32;;;;;;;14.55;9.23;;;;;;;7.17;57.63;100859.33;1756671;80;21086;-70
2022/02/25 07:55:00;;;;;;;11.80;8.05;;;;;;;7.29;57.07;100858.81;1760847;80;21027;-69
2022/02/25 07:57:27;;;;;;;11.97;8.78;;;;;;;7.36;56.51;100852.59;1762776;80;21825;-70
2022/02/25 07:59:54;;;;;;;12.40;8.90;;;;;;;7.31;56.23;100853.30;1763004;80;21084;-69
2022/02/25 08:02:22;;;;;;;12.43;9.70;;;;;;;7.37;56.52;100852.88;1764157;80;21003;-70
2022/02/25 08:04:49;;;;;;;12.58;8.93;;;;;;;7.49;56.45;100855.85;1759997;80;21064;-69
2022/02/25 08:07:16;;;;;;;14.63;10.15;;;;;;;7.62;55.95;100848.71;1762768;80;20996;-69
2022/02/25 08:09:43;;;;;;;11.45;8.53;;;;;;;7.63;55.96;100847.13;1760594;80;21539;-69
2022/02/25 08:12:10;;;;;;;13.88;9.60;;;;;;;7.71;55.64;100848.14;1763371;80;21222;-69
2022/02/25 08:14:40;;;;;;;13.18;9.33;;;;;;;7.67;55.39;100844.33;1762095;80;21102;-70
2022/02/25 08:17:09;;;;;;;13.03;9.85;;;;;;;7.62;55.23;100848.71;1767461;80;22019;-70
2022/02/25 08:19:36;;;;;;;13.53;9.50;;;;;;;7.68;55.28;100847.27;1760824;80;21567;-70
2022/02/25 08:22:03;;;;;;;14.70;10.18;;;;;;;7.84;55.21;100836.47;1755131;80;21008;-69
2022/02/25 08:24:30;;;;;;;12.85;8.38;;;;;;;7.99;54.87;100833.33;1761940;80;21020;-70
2022/02/25 08:26:58;;;;;;;12.55;9.63;;;;;;;8.13;54.49;100828.06;1762547;80;21121;-70
2022/02/25 08:29:28;;;;;;;13.48;9.73;;;;;;;8.19;54.42;100821.81;1769940;80;21798;-70
2022/02/25 08:31:56;;;;;;;13.53;9.53;;;;;;;8.33;54.20;100822.88;1768485;80;20989;-69
2022/02/25 08:34:26;;;;;;;13.68;9.68;;;;;;;8.43;53.66;100819.13;1767769;80;21035;-70
2022/02/25 08:36:55;;;;;;;13.13;9.73;;;;;;;8.49;53.46;100811.52;1755221;80;21051;-69
2022/02/25 08:39:23;;;;;;;14.28;10.13;;;;;;;8.51;53.04;100804.09;1761709;80;21080;-71
2022/02/25 08:41:49;;;;;;;13.80;9.53;;;;;;;8.56;53.05;100804.20;1761264;80;21121;-70
2022/02/25 08:44:16;;;;;;;12.90;9.40;;;;;;;8.65;53.07;100803.28;1759661;80;21034;-72
2022/02/25 08:46:45;;;;;;;13.80;10.43;;;;;;;8.73;52.97;100798.92;1771223;80;21098;-72
2022/02/25 08:49:11;;;;;;;14.83;10.95;;;;;;;8.72;52.41;100792.48;1766076;80;21017;-70
2022/02/25 08:51:38;;;;;;;14.10;10.85;;;;;;;8.68;52.46;100786.30;1766609;80;21060;-70
2022/02/25 08:54:06;;;;;;;14.70;11.57;;;;;;;8.72;52.38;100786.66;1761234;80;21012;-70
2022/02/25 08:56:33;;;;;;;14.90;11.10;;;;;;;8.64;51.47;100785.70;1759499;80;21189;-71
2022/02/25 08:59:00;;;;;;;18.45;12.68;;;;;;;8.55;51.76;100784.45;1766306;80;21128;-71
2022/02/25 09:01:27;;;;;;;17.05;12.33;;;;;;;8.59;51.85;100783.77;1762811;80;21090;-70
2022/02/25 09:03:54;;;;;;;17.67;13.00;;;;;;;8.63;51.55;100786.23;1757220;80;21633;-70
2022/02/25 09:06:22;;;;;;;17.50;12.63;;;;;;;8.47;51.33;100783.52;1762471;80;21769;-70
2022/02/25 09:08:49;;;;;;;19.05;13.45;;;;;;;8.25;51.58;100788.64;1760360;80;21063;-69
2022/02/25 09:11:17;;;;;;;19.48;13.62;;;;;;;8.09;52.22;100785.66;1768706;80;21047;-69
2022/02/25 09:13:46;;;;;;;17.73;12.98;;;;;;;8.06;52.65;100794.62;1710984;82;21049;-69
2022/02/25 09:16:14;;;;;;;17.50;12.37;;;;;;;8.10;52.97;100792.61;1756599;80;21039;-70
2022/02/25 09:18:42;;;;;;;16.95;12.05;;;;;;;8.23;53.21;100792.35;1759511;80;21126;-72
2022/02/25 09:21:09;;;;;;;16.85;13.03;;;;;;;8.36;53.19;100785.15;1767857;80;21039;-69
2022/02/25 09:23:36;;;;;;;15.10;11.73;;;;;;;8.51;53.09;100791.30;1762385;80;21471;-68
2022/02/25 09:26:03;;;;;;;16.23;12.63;;;;;;;8.60;52.85;100795.22;1755678;80;21089;-67
2022/02/25 09:28:30;;;;;;;14.93;12.10;;;;;;;8.65;52.52;100790.80;1761433;80;21359;-69
2022/02/25 09:30:58;;;;;;;16.35;12.05;;;;;;;8.67;52.47;100795.34;1754882;80;21511;-70
2022/02/25 09:33:24;;;;;;;18.70;12.93;;;;;;;8.72;52.49;100794.66;1759946;80;21094;-69
2022/02/25 09:35:53;;;;;;;17.95;13.70;;;;;;;8.75;52.31;100782.16;1750845;80;21099;-71
2022/02/25 09:38:20;;;;;;;15.53;12.03;;;;;;;8.76;52.10;100782.47;1745456;80;21080;-70
2022/02/25 09:40:51;;;;;;;16.75;12.98;;;;;;;8.82;52.11;100771.39;1756325;80;20992;-70
2022/02/25 09:43:18;;;;;;;20.70;14.53;;;;;;;8.85;51.72;100767.72;1767317;80;21059;-69
2022/02/25 09:45:44;;;;;;;21.15;14.55;;;;;;;8.81;51.65;100767.09;1763921;80;21052;-69
2022/02/25 09:48:13;;;;;;;17.15;13.10;;;;;;;8.82;51.52;100762.06;1722452;81;21578;-70
2022/02/25 09:50:42;;;;;;;18.02;13.50;;;;;;;8.87;51.41;100762.14;1739692;80;21055;-70
2022/02/25 09:53:10;;;;;;;18.87;13.18;;;;;;;8.90;51.29;100767.79;1755879;80;21054;-71
2022/02/25 09:55:37;;;;;;;18.92;13.38;;;;;;;8.96;51.15;100761.23;1757626;80;21756;-69
2022/02/25 09:58:07;;;;;;;14.33;11.08;;;;;;;9.00;51.15;100755.17;1763545;80;21050;-70
2022/02/25 10:00:36;;;;;;;18.02;13.48;;;;;;;9.09;51.20;100755.05;1757572;80;21020;-71
2022/02/25 10:03:06;;;;;;;19.17;13.28;;;;;;;9.09;50.80;100751.59;1760786;80;21087;-70
2022/02/25 10:05:34;;;;;;;18.37;13.38;;;;;;;9.16;51.22;100740.23;1760213;80;21090;-72
2022/02/25 10:08:20;;;;;;;17.25;12.78;;;;;;;9.35;50.91;100732.80;1763121;80;21209;-70
2022/02/25 10:10:57;;;;;;;14.93;12.35;;;;;;;9.48;50.20;100721.80;1723782;81;21051;-69
2022/02/25 10:13:27;;;;;;;16.02;11.93;;;;;;;9.56;50.26;100717.89;1753502;80;21078;-73
2022/02/25 10:15:57;;;;;;;18.75;13.55;;;;;;;9.59;49.35;100713.41;1762976;80;21058;-75
2022/02/25 10:18:33;;;;;;;16.40;12.25;;;;;;;9.59;49.69;100711.53;1758558;80;21684;-75
2022/02/25 10:21:10;;;;;;;16.73;12.25;;;;;;;9.72;49.22;100698.37;1758818;80;21591;-76
2022/02/25 10:23:44;;;;;;;14.98;11.20;;;;;;;9.86;48.98;100694.80;1764676;80;21074;-77
2022/02/25 10:26:19;;;;;;;16.32;11.55;;;;;;;10.05;48.82;100697.42;1758653;80;21118;-76
2022/02/25 10:28:50;;;;;;;15.55;11.95;;;;;;;10.17;48.21;100695.97;1757686;80;20993;-75
2022/02/25 10:31:33;;;;;;;16.50;12.25;;;;;;;10.20;47.32;100697.31;1770775;80;21067;-74
2022/02/25 10:34:11;;;;;;;14.40;11.88;;;;;;;10.07;46.91;100691.33;1763920;80;21719;-75
2022/02/25 10:36:50;;;;;;;17.02;12.30;;;;;;;9.88;46.16;100683.36;1766434;80;21067;-74
2022/02/25 10:39:24;;;;;;;12.93;10.15;;;;;;;9.79;46.72;100676.84;1755623;80;21092;-76
2022/02/25 10:42:11;;;;;;;18.07;12.90;;;;;;;9.79;47.09;100676.84;1758552;80;21058;-76
2022/02/25 10:44:49;;;;;;;16.73;11.85;;;;;;;9.68;46.97;100669.78;1755645;80;21083;-75
2022/02/25 10:47:25;;;;;;;17.02;12.03;;;;;;;9.66;47.16;100664.69;1758374;80;21150;-71
2022/02/25 10:50:11;;;;;;;15.80;11.25;;;;;;;9.72;47.22;100669.56;1763320;80;21144;-73
2022/02/25 10:52:50;;;;;;;15.03;11.33;;;;;;;9.82;47.16;100665.68;1767793;80;21080;-72
2022/02/25 10:55:19;;;;;;;14.00;10.32;;;;;;;9.87;47.21;100664.39;1759301;80;21050;-71
2022/02/25 10:57:47;;;;;;;15.50;11.50;;;;;;;9.99;46.97;100658.39;1740306;80;21130;-73
2022/02/25 11:00:15;;;;;;;14.53;10.87;;;;;;;10.05;46.45;100653.93;1637198;80;10000459;-70
2022/02/25 11:02:45;;;;;;;14.03;10.58;;;;;;;9.99;45.78;100649.59;1767151;80;21055;-71
2022/02/25 11:05:16;;;;;;;13.32;10.68;;;;;;;9.81;46.15;100640.06;1766764;80;21145;-71
2022/02/25 11:07:47;;;;;;;15.05;11.30;;;;;;;9.67;46.21;100634.28;1756752;80;21047;-72
2022/02/25 11:10:16;;;;;;;14.50;9.85;;;;;;;9.61;46.36;100637.44;1765576;80;21161;-73
2022/02/25 11:12:44;;;;;;;15.78;11.28;;;;;;;9.61;46.42;100632.11;1766324;80;21035;-70
2022/02/25 11:15:16;;;;;;;12.80;10.80;;;;;;;9.61;46.22;100626.77;1758232;80;21104;-71
2022/02/25 11:17:46;;;;;;;15.10;10.38;;;;;;;9.64;46.23;100626.81;1761911;80;20995;-69
2022/02/25 11:20:16;;;;;;;15.03;11.38;;;;;;;9.64;46.25;100626.81;1762855;80;22172;-71
2022/02/25 11:22:43;;;;;;;15.38;11.35;;;;;;;9.62;46.28;100620.37;1753501;80;21110;-70
2022/02/25 11:25:15;;;;;;;13.30;9.83;;;;;;;9.66;46.45;100613.20;1755887;80;21142;-70
2022/02/25 11:27:45;;;;;;;15.00;11.20;;;;;;;9.71;46.65;100614.62;1749467;80;21566;-72
2022/02/25 11:30:21;;;;;;;14.75;10.60;;;;;;;9.72;46.72;100609.02;1761131;80;21676;-72